sensor_id;sensor_type;location;lat;lon;timestamp;P1;durP1;ratioP1;P2;durP2;ratioP2
7883;SDS011;3987;51.458;7.238;2022-09-28T00:00:37;6.07;;;5.77;;
7883;SDS011;3987;51.458;7.238;2022-09-28T00:03:05;6.23;;;5.77;;
7883;SDS011;3987;51.458;7.238;2022-09-28T00:05:31;6.17;;;5.80;;
7883;SDS011;3987;51.458;7.238;2022-09-28T00:07:56;6.57;;;6.17;;
7883;SDS011;3987;51.458;7.238;2022-09-28T00:10:22;6.60;;;6.10;;
7883;SDS011;3987;51.458;7.238;2022-09-28T00:12:48;7.23;;;6.63;;
7883;SDS011;3987;51.458;7.238;2022-09-28T00:15:14;7.27;;;6.50;;
7883;SDS011;3987;51.458;7.238;2022-09-28T00:17:40;8.03;;;7.43;;
7883;SDS011;3987;51.458;7.238;2022-09-28T00:20:05;6.47;;;6.03;;
7883;SDS011;3987;51.458;7.238;2022-09-28T00:22:31;7.40;;;7.00;;
7883;SDS011;3987;51.458;7.238;2022-09-28T00:24:56;6.87;;;6.50;;
7883;SDS011;3987;51.458;7.238;2022-09-28T00:27:22;6.93;;;6.63;;
7883;SDS011;3987;51.458;7.238;2022-09-28T00:29:47;6.33;;;6.13;;
7883;SDS011;3987;51.458;7.238;2022-09-28T00:32:13;6.27;;;5.97;;
7883;SDS011;3987;51.458;7.238;2022-09-28T00:34:42;6.23;;;5.93;;
7883;SDS011;3987;51.458;7.238;2022-09-28T00:37:13;6.97;;;6.37;;
7883;SDS011;3987;51.458;7.238;2022-09-28T00:39:39;6.90;;;6.60;;
7883;SDS011;3987;51.458;7.238;2022-09-28T00:42:18;6.90;;;6.50;;
7883;SDS011;3987;51.458;7.238;2022-09-28T00:44:46;7.17;;;6.60;;
7883;SDS011;3987;51.458;7.238;2022-09-28T00:50:00;6.50;;;6.20;;
7883;SDS011;3987;51.458;7.238;2022-09-28T00:52:34;6.40;;;6.17;;
7883;SDS011;3987;51.458;7.238;2022-09-28T00:55:04;6.40;;;6.20;;
7883;SDS011;3987;51.458;7.238;2022-09-28T00:57:32;5.70;;;5.47;;
7883;SDS011;3987;51.458;7.238;2022-09-28T00:59:58;4.80;;;4.60;;
7883;SDS011;3987;51.458;7.238;2022-09-28T01:02:25;5.10;;;4.90;;
7883;SDS011;3987;51.458;7.238;2022-09-28T01:04:50;4.90;;;4.63;;
7883;SDS011;3987;51.458;7.238;2022-09-28T01:07:16;4.87;;;4.60;;
7883;SDS011;3987;51.458;7.238;2022-09-28T01:09:42;4.37;;;4.20;;
7883;SDS011;3987;51.458;7.238;2022-09-28T01:12:10;4.23;;;3.93;;
7883;SDS011;3987;51.458;7.238;2022-09-28T01:14:35;5.00;;;4.77;;
7883;SDS011;3987;51.458;7.238;2022-09-28T01:20:02;4.93;;;4.73;;
7883;SDS011;3987;51.458;7.238;2022-09-28T01:25:06;6.53;;;6.33;;
7883;SDS011;3987;51.458;7.238;2022-09-28T01:27:49;6.63;;;6.43;;
7883;SDS011;3987;51.458;7.238;2022-09-28T01:30:19;6.83;;;6.47;;
7883;SDS011;3987;51.458;7.238;2022-09-28T01:35:14;7.10;;;6.70;;
7883;SDS011;3987;51.458;7.238;2022-09-28T01:37:51;7.40;;;6.90;;
7883;SDS011;3987;51.458;7.238;2022-09-28T01:40:20;7.37;;;6.97;;
7883;SDS011;3987;51.458;7.238;2022-09-28T01:42:47;8.00;;;7.60;;
7883;SDS011;3987;51.458;7.238;2022-09-28T01:45:19;7.63;;;7.23;;
7883;SDS011;3987;51.458;7.238;2022-09-28T01:47:49;8.43;;;8.03;;
7883;SDS011;3987;51.458;7.238;2022-09-28T01:50:16;7.70;;;7.30;;
7883;SDS011;3987;51.458;7.238;2022-09-28T01:52:50;8.53;;;7.87;;
7883;SDS011;3987;51.458;7.238;2022-09-28T01:58:23;9.00;;;8.30;;
7883;SDS011;3987;51.458;7.238;2022-09-28T02:00:55;9.03;;;8.47;;
7883;SDS011;3987;51.458;7.238;2022-09-28T02:03:28;9.03;;;8.53;;
7883;SDS011;3987;51.458;7.238;2022-09-28T02:06:01;8.67;;;8.27;;
7883;SDS011;3987;51.458;7.238;2022-09-28T02:08:32;8.77;;;8.30;;
7883;SDS011;3987;51.458;7.238;2022-09-28T02:11:05;8.73;;;8.43;;
7883;SDS011;3987;51.458;7.238;2022-09-28T02:13:38;10.20;;;9.53;;
7883;SDS011;3987;51.458;7.238;2022-09-28T02:18:36;10.63;;;9.93;;
7883;SDS011;3987;51.458;7.238;2022-09-28T02:21:06;11.10;;;10.40;;
7883;SDS011;3987;51.458;7.238;2022-09-28T02:23:34;10.50;;;9.80;;
7883;SDS011;3987;51.458;7.238;2022-09-28T02:26:02;10.97;;;10.03;;
7883;SDS011;3987;51.458;7.238;2022-09-28T02:28:32;11.77;;;10.63;;
7883;SDS011;3987;51.458;7.238;2022-09-28T02:30:58;12.13;;;11.20;;
7883;SDS011;3987;51.458;7.238;2022-09-28T02:33:24;12.40;;;11.20;;
7883;SDS011;3987;51.458;7.238;2022-09-28T02:35:56;12.70;;;11.37;;
7883;SDS011;3987;51.458;7.238;2022-09-28T02:38:23;12.70;;;11.70;;
7883;SDS011;3987;51.458;7.238;2022-09-28T02:40:53;12.90;;;11.60;;
7883;SDS011;3987;51.458;7.238;2022-09-28T02:43:26;13.50;;;12.33;;
7883;SDS011;3987;51.458;7.238;2022-09-28T02:48:58;14.57;;;13.07;;
7883;SDS011;3987;51.458;7.238;2022-09-28T02:51:48;15.07;;;13.43;;
7883;SDS011;3987;51.458;7.238;2022-09-28T02:57:17;15.93;;;14.23;;
7883;SDS011;3987;51.458;7.238;2022-09-28T02:59:49;17.20;;;15.47;;
7883;SDS011;3987;51.458;7.238;2022-09-28T03:05:19;17.23;;;15.40;;
7883;SDS011;3987;51.458;7.238;2022-09-28T03:08:02;17.63;;;15.83;;
7883;SDS011;3987;51.458;7.238;2022-09-28T03:10:38;17.63;;;15.80;;
7883;SDS011;3987;51.458;7.238;2022-09-28T03:13:07;18.27;;;16.47;;
7883;SDS011;3987;51.458;7.238;2022-09-28T03:15:34;20.77;;;17.60;;
7883;SDS011;3987;51.458;7.238;2022-09-28T03:18:00;20.33;;;17.80;;
7883;SDS011;3987;51.458;7.238;2022-09-28T03:20:26;20.57;;;18.37;;
7883;SDS011;3987;51.458;7.238;2022-09-28T03:22:53;21.90;;;19.00;;
7883;SDS011;3987;51.458;7.238;2022-09-28T03:25:19;22.83;;;18.83;;
7883;SDS011;3987;51.458;7.238;2022-09-28T03:27:45;21.87;;;19.57;;
7883;SDS011;3987;51.458;7.238;2022-09-28T03:30:12;24.37;;;20.27;;
7883;SDS011;3987;51.458;7.238;2022-09-28T03:32:41;30.13;;;21.83;;
7883;SDS011;3987;51.458;7.238;2022-09-28T03:35:07;28.07;;;22.10;;
7883;SDS011;3987;51.458;7.238;2022-09-28T03:37:34;28.60;;;22.57;;
7883;SDS011;3987;51.458;7.238;2022-09-28T03:39:59;28.67;;;22.27;;
7883;SDS011;3987;51.458;7.238;2022-09-28T03:42:25;35.77;;;22.87;;
7883;SDS011;3987;51.458;7.238;2022-09-28T03:44:51;32.03;;;24.00;;
7883;SDS011;3987;51.458;7.238;2022-09-28T03:47:16;28.77;;;22.47;;
7883;SDS011;3987;51.458;7.238;2022-09-28T03:49:43;30.00;;;22.00;;
7883;SDS011;3987;51.458;7.238;2022-09-28T03:52:10;28.50;;;22.27;;
7883;SDS011;3987;51.458;7.238;2022-09-28T03:54:36;33.83;;;23.23;;
7883;SDS011;3987;51.458;7.238;2022-09-28T03:57:01;27.57;;;21.33;;
7883;SDS011;3987;51.458;7.238;2022-09-28T03:59:27;26.20;;;21.53;;
7883;SDS011;3987;51.458;7.238;2022-09-28T04:01:52;29.47;;;22.37;;
7883;SDS011;3987;51.458;7.238;2022-09-28T04:04:18;25.87;;;21.57;;
7883;SDS011;3987;51.458;7.238;2022-09-28T04:06:43;29.30;;;21.40;;
7883;SDS011;3987;51.458;7.238;2022-09-28T04:09:09;28.83;;;20.70;;
7883;SDS011;3987;51.458;7.238;2022-09-28T04:11:35;29.23;;;22.07;;
7883;SDS011;3987;51.458;7.238;2022-09-28T04:14:00;35.07;;;23.80;;
7883;SDS011;3987;51.458;7.238;2022-09-28T04:16:27;28.27;;;22.13;;
7883;SDS011;3987;51.458;7.238;2022-09-28T04:19:00;28.27;;;22.70;;
7883;SDS011;3987;51.458;7.238;2022-09-28T04:21:51;29.67;;;23.27;;
7883;SDS011;3987;51.458;7.238;2022-09-28T04:24:17;30.43;;;24.13;;
7883;SDS011;3987;51.458;7.238;2022-09-28T04:26:44;38.67;;;26.40;;
7883;SDS011;3987;51.458;7.238;2022-09-28T04:29:11;38.83;;;26.63;;
7883;SDS011;3987;51.458;7.238;2022-09-28T04:31:48;37.60;;;27.33;;
7883;SDS011;3987;51.458;7.238;2022-09-28T04:34:16;40.80;;;27.03;;
7883;SDS011;3987;51.458;7.238;2022-09-28T04:36:43;39.97;;;27.20;;
7883;SDS011;3987;51.458;7.238;2022-09-28T04:39:09;36.23;;;25.70;;
7883;SDS011;3987;51.458;7.238;2022-09-28T04:41:39;35.63;;;27.03;;
7883;SDS011;3987;51.458;7.238;2022-09-28T04:44:05;38.53;;;26.47;;
7883;SDS011;3987;51.458;7.238;2022-09-28T04:46:31;36.80;;;25.67;;
7883;SDS011;3987;51.458;7.238;2022-09-28T04:49:15;34.97;;;26.70;;
7883;SDS011;3987;51.458;7.238;2022-09-28T04:51:52;36.70;;;26.37;;
7883;SDS011;3987;51.458;7.238;2022-09-28T04:54:17;36.47;;;26.70;;
7883;SDS011;3987;51.458;7.238;2022-09-28T04:56:42;32.20;;;25.30;;
7883;SDS011;3987;51.458;7.238;2022-09-28T04:59:08;32.70;;;24.20;;
7883;SDS011;3987;51.458;7.238;2022-09-28T05:01:35;31.40;;;22.90;;
7883;SDS011;3987;51.458;7.238;2022-09-28T05:04:19;28.43;;;23.57;;
7883;SDS011;3987;51.458;7.238;2022-09-28T05:06:53;30.07;;;22.70;;
7883;SDS011;3987;51.458;7.238;2022-09-28T05:09:18;30.93;;;23.53;;
7883;SDS011;3987;51.458;7.238;2022-09-28T05:11:47;31.63;;;23.77;;
7883;SDS011;3987;51.458;7.238;2022-09-28T05:14:15;32.33;;;23.00;;
7883;SDS011;3987;51.458;7.238;2022-09-28T05:16:41;28.77;;;23.07;;
7883;SDS011;3987;51.458;7.238;2022-09-28T05:19:32;28.97;;;21.90;;
7883;SDS011;3987;51.458;7.238;2022-09-28T05:22:02;28.30;;;22.23;;
7883;SDS011;3987;51.458;7.238;2022-09-28T05:24:31;26.90;;;22.63;;
7883;SDS011;3987;51.458;7.238;2022-09-28T05:26:57;31.07;;;23.93;;
7883;SDS011;3987;51.458;7.238;2022-09-28T05:29:23;26.43;;;21.47;;
7883;SDS011;3987;51.458;7.238;2022-09-28T05:32:07;29.33;;;22.13;;
7883;SDS011;3987;51.458;7.238;2022-09-28T05:34:34;32.57;;;23.00;;
7883;SDS011;3987;51.458;7.238;2022-09-28T05:37:00;31.20;;;22.63;;
7883;SDS011;3987;51.458;7.238;2022-09-28T05:39:25;30.80;;;23.60;;
7883;SDS011;3987;51.458;7.238;2022-09-28T05:41:51;28.93;;;22.70;;
7883;SDS011;3987;51.458;7.238;2022-09-28T05:44:16;29.60;;;24.00;;
7883;SDS011;3987;51.458;7.238;2022-09-28T05:46:42;28.27;;;22.63;;
7883;SDS011;3987;51.458;7.238;2022-09-28T05:49:09;29.97;;;23.77;;
7883;SDS011;3987;51.458;7.238;2022-09-28T05:51:35;29.97;;;24.13;;
7883;SDS011;3987;51.458;7.238;2022-09-28T05:54:00;33.37;;;24.77;;
7883;SDS011;3987;51.458;7.238;2022-09-28T05:56:28;35.40;;;23.90;;
7883;SDS011;3987;51.458;7.238;2022-09-28T05:58:54;30.93;;;24.03;;
7883;SDS011;3987;51.458;7.238;2022-09-28T06:01:22;33.50;;;25.73;;
7883;SDS011;3987;51.458;7.238;2022-09-28T06:03:48;32.63;;;25.73;;
7883;SDS011;3987;51.458;7.238;2022-09-28T06:06:13;32.30;;;25.60;;
7883;SDS011;3987;51.458;7.238;2022-09-28T06:08:40;32.40;;;25.27;;
7883;SDS011;3987;51.458;7.238;2022-09-28T06:11:32;30.33;;;25.13;;
7883;SDS011;3987;51.458;7.238;2022-09-28T06:14:02;29.10;;;24.93;;
7883;SDS011;3987;51.458;7.238;2022-09-28T06:16:30;31.53;;;24.60;;
7883;SDS011;3987;51.458;7.238;2022-09-28T06:18:55;36.63;;;25.77;;
7883;SDS011;3987;51.458;7.238;2022-09-28T06:21:37;32.57;;;24.30;;
7883;SDS011;3987;51.458;7.238;2022-09-28T06:24:04;32.27;;;25.30;;
7883;SDS011;3987;51.458;7.238;2022-09-28T06:26:30;33.63;;;26.23;;
7883;SDS011;3987;51.458;7.238;2022-09-28T06:28:55;33.33;;;25.03;;
7883;SDS011;3987;51.458;7.238;2022-09-28T06:31:21;36.00;;;25.63;;
7883;SDS011;3987;51.458;7.238;2022-09-28T06:33:49;37.73;;;26.70;;
7883;SDS011;3987;51.458;7.238;2022-09-28T06:36:16;36.53;;;25.43;;
7883;SDS011;3987;51.458;7.238;2022-09-28T06:38:42;37.50;;;27.17;;
7883;SDS011;3987;51.458;7.238;2022-09-28T06:41:09;33.00;;;25.80;;
7883;SDS011;3987;51.458;7.238;2022-09-28T06:43:35;35.23;;;27.10;;
7883;SDS011;3987;51.458;7.238;2022-09-28T06:46:22;36.33;;;27.03;;
7883;SDS011;3987;51.458;7.238;2022-09-28T06:49:10;36.20;;;26.33;;
7883;SDS011;3987;51.458;7.238;2022-09-28T06:51:54;34.47;;;25.47;;
7883;SDS011;3987;51.458;7.238;2022-09-28T06:54:31;36.00;;;27.47;;
7883;SDS011;3987;51.458;7.238;2022-09-28T06:57:05;37.60;;;27.43;;
7883;SDS011;3987;51.458;7.238;2022-09-28T06:59:31;40.60;;;28.13;;
7883;SDS011;3987;51.458;7.238;2022-09-28T07:01:58;36.70;;;28.30;;
7883;SDS011;3987;51.458;7.238;2022-09-28T07:04:42;41.73;;;29.70;;
7883;SDS011;3987;51.458;7.238;2022-09-28T07:07:29;39.70;;;28.73;;
7883;SDS011;3987;51.458;7.238;2022-09-28T07:10:05;37.33;;;28.67;;
7883;SDS011;3987;51.458;7.238;2022-09-28T07:12:51;40.20;;;29.13;;
7883;SDS011;3987;51.458;7.238;2022-09-28T07:15:23;40.93;;;29.10;;
7883;SDS011;3987;51.458;7.238;2022-09-28T07:17:49;43.40;;;28.93;;
7883;SDS011;3987;51.458;7.238;2022-09-28T07:20:14;43.03;;;29.57;;
7883;SDS011;3987;51.458;7.238;2022-09-28T07:22:40;42.43;;;28.93;;
7883;SDS011;3987;51.458;7.238;2022-09-28T07:25:07;43.77;;;31.40;;
7883;SDS011;3987;51.458;7.238;2022-09-28T07:27:57;44.27;;;29.40;;
7883;SDS011;3987;51.458;7.238;2022-09-28T07:30:35;43.23;;;28.87;;
7883;SDS011;3987;51.458;7.238;2022-09-28T07:33:09;37.37;;;27.47;;
7883;SDS011;3987;51.458;7.238;2022-09-28T07:35:49;42.37;;;30.30;;
7883;SDS011;3987;51.458;7.238;2022-09-28T07:38:16;37.07;;;28.10;;
7883;SDS011;3987;51.458;7.238;2022-09-28T07:40:42;41.67;;;29.67;;
7883;SDS011;3987;51.458;7.238;2022-09-28T07:43:26;39.57;;;28.27;;
7883;SDS011;3987;51.458;7.238;2022-09-28T07:45:52;43.90;;;30.10;;
7883;SDS011;3987;51.458;7.238;2022-09-28T07:48:19;40.93;;;29.80;;
7883;SDS011;3987;51.458;7.238;2022-09-28T07:51:09;44.03;;;30.40;;
7883;SDS011;3987;51.458;7.238;2022-09-28T07:53:39;45.00;;;30.57;;
7883;SDS011;3987;51.458;7.238;2022-09-28T07:56:28;50.93;;;33.60;;
7883;SDS011;3987;51.458;7.238;2022-09-28T07:59:15;45.50;;;31.83;;
7883;SDS011;3987;51.458;7.238;2022-09-28T08:02:00;47.67;;;32.83;;
7883;SDS011;3987;51.458;7.238;2022-09-28T08:06:57;47.97;;;33.43;;
7883;SDS011;3987;51.458;7.238;2022-09-28T08:09:24;46.57;;;33.23;;
7883;SDS011;3987;51.458;7.238;2022-09-28T08:12:08;47.33;;;33.80;;
7883;SDS011;3987;51.458;7.238;2022-09-28T08:14:39;48.00;;;32.53;;
7883;SDS011;3987;51.458;7.238;2022-09-28T08:17:21;46.77;;;32.17;;
7883;SDS011;3987;51.458;7.238;2022-09-28T08:19:50;44.47;;;33.27;;
7883;SDS011;3987;51.458;7.238;2022-09-28T08:22:34;45.13;;;31.60;;
7883;SDS011;3987;51.458;7.238;2022-09-28T08:25:01;44.33;;;31.03;;
7883;SDS011;3987;51.458;7.238;2022-09-28T08:27:27;42.07;;;31.87;;
7883;SDS011;3987;51.458;7.238;2022-09-28T08:29:53;46.10;;;32.80;;
7883;SDS011;3987;51.458;7.238;2022-09-28T08:32:38;47.87;;;33.97;;
7883;SDS011;3987;51.458;7.238;2022-09-28T08:35:22;42.93;;;31.83;;
7883;SDS011;3987;51.458;7.238;2022-09-28T08:38:10;43.93;;;32.47;;
7883;SDS011;3987;51.458;7.238;2022-09-28T08:44:16;42.07;;;31.30;;
7883;SDS011;3987;51.458;7.238;2022-09-28T08:47:15;46.30;;;31.33;;
7883;SDS011;3987;51.458;7.238;2022-09-28T08:50:22;47.43;;;34.80;;
7883;SDS011;3987;51.458;7.238;2022-09-28T08:53:41;46.20;;;33.20;;
7883;SDS011;3987;51.458;7.238;2022-09-28T08:56:38;49.93;;;35.13;;
7883;SDS011;3987;51.458;7.238;2022-09-28T08:59:11;50.60;;;34.27;;
7883;SDS011;3987;51.458;7.238;2022-09-28T09:01:46;47.93;;;34.33;;
7883;SDS011;3987;51.458;7.238;2022-09-28T09:04:15;49.00;;;33.47;;
7883;SDS011;3987;51.458;7.238;2022-09-28T09:15:56;48.00;;;31.47;;
7883;SDS011;3987;51.458;7.238;2022-09-28T09:21:58;39.23;;;30.30;;
7883;SDS011;3987;51.458;7.238;2022-09-28T09:24:27;40.83;;;30.73;;
7883;SDS011;3987;51.458;7.238;2022-09-28T09:27:04;41.40;;;30.43;;
7883;SDS011;3987;51.458;7.238;2022-09-28T09:29:45;42.23;;;31.47;;
7883;SDS011;3987;51.458;7.238;2022-09-28T09:38:32;36.50;;;27.37;;
7883;SDS011;3987;51.458;7.238;2022-09-28T09:41:24;35.97;;;27.90;;
7883;SDS011;3987;51.458;7.238;2022-09-28T09:47:24;35.67;;;26.67;;
7883;SDS011;3987;51.458;7.238;2022-09-28T09:52:59;37.07;;;29.57;;
7883;SDS011;3987;51.458;7.238;2022-09-28T09:55:45;45.60;;;34.03;;
7883;SDS011;3987;51.458;7.238;2022-09-28T09:58:28;34.23;;;27.57;;
7883;SDS011;3987;51.458;7.238;2022-09-28T10:01:15;35.73;;;29.23;;
7883;SDS011;3987;51.458;7.238;2022-09-28T10:04:01;33.47;;;26.70;;
7883;SDS011;3987;51.458;7.238;2022-09-28T10:06:29;28.40;;;24.67;;
7883;SDS011;3987;51.458;7.238;2022-09-28T10:09:04;28.13;;;25.07;;
7883;SDS011;3987;51.458;7.238;2022-09-28T10:11:35;25.97;;;23.27;;
7883;SDS011;3987;51.458;7.238;2022-09-28T10:14:05;22.30;;;19.90;;
7883;SDS011;3987;51.458;7.238;2022-09-28T10:16:43;17.83;;;16.27;;
7883;SDS011;3987;51.458;7.238;2022-09-28T10:19:16;17.57;;;16.17;;
7883;SDS011;3987;51.458;7.238;2022-09-28T10:22:03;43.53;;;34.27;;
7883;SDS011;3987;51.458;7.238;2022-09-28T10:24:33;35.27;;;27.33;;
7883;SDS011;3987;51.458;7.238;2022-09-28T10:27:05;14.33;;;13.33;;
7883;SDS011;3987;51.458;7.238;2022-09-28T10:29:42;11.70;;;11.00;;
7883;SDS011;3987;51.458;7.238;2022-09-28T10:32:22;12.40;;;11.63;;
7883;SDS011;3987;51.458;7.238;2022-09-28T10:34:52;11.87;;;10.87;;
7883;SDS011;3987;51.458;7.238;2022-09-28T10:37:21;7.70;;;7.40;;
7883;SDS011;3987;51.458;7.238;2022-09-28T10:39:58;12.37;;;11.40;;
7883;SDS011;3987;51.458;7.238;2022-09-28T10:42:30;18.57;;;16.67;;
7883;SDS011;3987;51.458;7.238;2022-09-28T10:47:46;9.93;;;9.30;;
7883;SDS011;3987;51.458;7.238;2022-09-28T10:50:21;12.27;;;11.30;;
7883;SDS011;3987;51.458;7.238;2022-09-28T10:53:15;11.93;;;11.23;;
7883;SDS011;3987;51.458;7.238;2022-09-28T10:56:04;12.63;;;12.03;;
7883;SDS011;3987;51.458;7.238;2022-09-28T10:58:36;15.50;;;14.40;;
7883;SDS011;3987;51.458;7.238;2022-09-28T11:01:06;20.37;;;18.67;;
7883;SDS011;3987;51.458;7.238;2022-09-28T11:03:34;19.73;;;17.87;;
7883;SDS011;3987;51.458;7.238;2022-09-28T11:06:35;18.67;;;17.17;;
7883;SDS011;3987;51.458;7.238;2022-09-28T11:09:03;16.53;;;15.17;;
7883;SDS011;3987;51.458;7.238;2022-09-28T11:11:38;17.17;;;15.57;;
7883;SDS011;3987;51.458;7.238;2022-09-28T11:14:05;14.00;;;13.10;;
7883;SDS011;3987;51.458;7.238;2022-09-28T11:19:50;11.27;;;10.53;;
7883;SDS011;3987;51.458;7.238;2022-09-28T11:27:38;21.00;;;18.90;;
7883;SDS011;3987;51.458;7.238;2022-09-28T11:30:04;11.17;;;10.33;;
7883;SDS011;3987;51.458;7.238;2022-09-28T11:33:03;10.00;;;9.33;;
7883;SDS011;3987;51.458;7.238;2022-09-28T11:36:11;10.67;;;9.77;;
7883;SDS011;3987;51.458;7.238;2022-09-28T11:38:39;9.73;;;9.33;;
7883;SDS011;3987;51.458;7.238;2022-09-28T11:44:20;8.30;;;7.90;;
7883;SDS011;3987;51.458;7.238;2022-09-28T11:47:24;8.00;;;7.70;;
7883;SDS011;3987;51.458;7.238;2022-09-28T11:52:57;7.93;;;7.23;;
7883;SDS011;3987;51.458;7.238;2022-09-28T11:55:45;6.97;;;6.47;;
7883;SDS011;3987;51.458;7.238;2022-09-28T11:58:42;7.10;;;6.70;;
7883;SDS011;3987;51.458;7.238;2022-09-28T12:04:11;6.50;;;6.10;;
7883;SDS011;3987;51.458;7.238;2022-09-28T12:06:40;6.77;;;6.57;;
7883;SDS011;3987;51.458;7.238;2022-09-28T12:09:19;6.30;;;6.17;;
7883;SDS011;3987;51.458;7.238;2022-09-28T12:11:57;6.13;;;5.70;;
7883;SDS011;3987;51.458;7.238;2022-09-28T12:14:40;6.27;;;6.07;;
7883;SDS011;3987;51.458;7.238;2022-09-28T12:17:17;6.80;;;6.50;;
7883;SDS011;3987;51.458;7.238;2022-09-28T12:22:28;5.70;;;5.57;;
7883;SDS011;3987;51.458;7.238;2022-09-28T12:24:57;4.47;;;4.17;;
7883;SDS011;3987;51.458;7.238;2022-09-28T12:27:39;8.00;;;7.50;;
7883;SDS011;3987;51.458;7.238;2022-09-28T12:30:16;4.67;;;4.57;;
7883;SDS011;3987;51.458;7.238;2022-09-28T12:38:27;5.30;;;5.20;;
7883;SDS011;3987;51.458;7.238;2022-09-28T12:52:06;7.87;;;7.57;;
7883;SDS011;3987;51.458;7.238;2022-09-28T12:54:44;7.70;;;7.40;;
7883;SDS011;3987;51.458;7.238;2022-09-28T12:57:31;6.90;;;6.57;;
7883;SDS011;3987;51.458;7.238;2022-09-28T13:10:50;6.03;;;5.70;;
7883;SDS011;3987;51.458;7.238;2022-09-28T13:13:37;5.60;;;5.40;;
7883;SDS011;3987;51.458;7.238;2022-09-28T13:24:38;5.23;;;4.93;;
7883;SDS011;3987;51.458;7.238;2022-09-28T13:27:15;5.47;;;5.20;;
7883;SDS011;3987;51.458;7.238;2022-09-28T13:29:44;4.40;;;4.10;;
7883;SDS011;3987;51.458;7.238;2022-09-28T13:32:13;3.90;;;3.80;;
7883;SDS011;3987;51.458;7.238;2022-09-28T13:34:39;3.53;;;3.47;;
7883;SDS011;3987;51.458;7.238;2022-09-28T13:42:08;3.47;;;3.20;;
7883;SDS011;3987;51.458;7.238;2022-09-28T13:59:07;3.27;;;3.17;;
7883;SDS011;3987;51.458;7.238;2022-09-28T14:01:41;2.90;;;2.90;;
7883;SDS011;3987;51.458;7.238;2022-09-28T14:06:35;2.80;;;2.60;;
7883;SDS011;3987;51.458;7.238;2022-09-28T14:30:19;2.60;;;2.30;;
7883;SDS011;3987;51.458;7.238;2022-09-28T14:32:49;1.83;;;1.83;;
7883;SDS011;3987;51.458;7.238;2022-09-28T14:35:19;1.90;;;1.90;;
7883;SDS011;3987;51.458;7.238;2022-09-28T14:37:48;2.10;;;2.10;;
7883;SDS011;3987;51.458;7.238;2022-09-28T14:40:51;2.10;;;2.10;;
7883;SDS011;3987;51.458;7.238;2022-09-28T14:59:28;3.37;;;2.47;;
7883;SDS011;3987;51.458;7.238;2022-09-28T15:01:58;2.47;;;2.37;;
7883;SDS011;3987;51.458;7.238;2022-09-28T15:04:32;2.60;;;2.40;;
7883;SDS011;3987;51.458;7.238;2022-09-28T15:07:00;3.13;;;2.80;;
7883;SDS011;3987;51.458;7.238;2022-09-28T15:11:51;4.17;;;4.00;;
7883;SDS011;3987;51.458;7.238;2022-09-28T15:14:19;3.30;;;3.10;;
7883;SDS011;3987;51.458;7.238;2022-09-28T15:16:45;2.40;;;2.30;;
7883;SDS011;3987;51.458;7.238;2022-09-28T15:21:40;4.80;;;2.33;;
7883;SDS011;3987;51.458;7.238;2022-09-28T15:24:22;2.23;;;2.10;;
7883;SDS011;3987;51.458;7.238;2022-09-28T15:26:49;2.60;;;2.40;;
7883;SDS011;3987;51.458;7.238;2022-09-28T15:29:16;2.50;;;2.40;;
7883;SDS011;3987;51.458;7.238;2022-09-28T15:31:42;2.30;;;2.20;;
7883;SDS011;3987;51.458;7.238;2022-09-28T15:34:10;2.33;;;2.23;;
7883;SDS011;3987;51.458;7.238;2022-09-28T15:37:09;2.40;;;2.37;;
7883;SDS011;3987;51.458;7.238;2022-09-28T15:39:35;2.13;;;2.07;;
7883;SDS011;3987;51.458;7.238;2022-09-28T15:42:01;2.57;;;2.47;;
7883;SDS011;3987;51.458;7.238;2022-09-28T15:47:14;2.53;;;2.43;;
7883;SDS011;3987;51.458;7.238;2022-09-28T15:50:00;3.03;;;2.83;;
7883;SDS011;3987;51.458;7.238;2022-09-28T15:52:38;2.80;;;2.63;;
7883;SDS011;3987;51.458;7.238;2022-09-28T15:55:18;2.63;;;2.00;;
7883;SDS011;3987;51.458;7.238;2022-09-28T15:57:46;1.90;;;1.90;;
7883;SDS011;3987;51.458;7.238;2022-09-28T16:02:56;1.53;;;1.53;;
7883;SDS011;3987;51.458;7.238;2022-09-28T16:05:45;1.20;;;1.20;;
7883;SDS011;3987;51.458;7.238;2022-09-28T16:08:22;1.37;;;1.37;;
7883;SDS011;3987;51.458;7.238;2022-09-28T16:13:58;0.67;;;0.67;;
7883;SDS011;3987;51.458;7.238;2022-09-28T16:16:29;0.83;;;0.83;;
7883;SDS011;3987;51.458;7.238;2022-09-28T16:19:00;0.90;;;0.90;;
7883;SDS011;3987;51.458;7.238;2022-09-28T16:21:42;0.93;;;0.80;;
7883;SDS011;3987;51.458;7.238;2022-09-28T16:24:17;1.20;;;1.10;;
7883;SDS011;3987;51.458;7.238;2022-09-28T16:26:44;1.37;;;1.37;;
7883;SDS011;3987;51.458;7.238;2022-09-28T16:29:24;1.00;;;0.93;;
7883;SDS011;3987;51.458;7.238;2022-09-28T16:31:52;1.20;;;1.20;;
7883;SDS011;3987;51.458;7.238;2022-09-28T16:34:19;1.10;;;1.10;;
7883;SDS011;3987;51.458;7.238;2022-09-28T16:36:45;1.23;;;1.23;;
7883;SDS011;3987;51.458;7.238;2022-09-28T16:39:13;1.17;;;1.17;;
7883;SDS011;3987;51.458;7.238;2022-09-28T16:41:41;1.23;;;1.23;;
7883;SDS011;3987;51.458;7.238;2022-09-28T16:44:19;1.57;;;1.00;;
7883;SDS011;3987;51.458;7.238;2022-09-28T16:46:47;1.70;;;1.70;;
7883;SDS011;3987;51.458;7.238;2022-09-28T16:49:14;1.87;;;1.87;;
7883;SDS011;3987;51.458;7.238;2022-09-28T16:51:43;2.17;;;1.80;;
7883;SDS011;3987;51.458;7.238;2022-09-28T16:54:14;1.50;;;1.50;;
7883;SDS011;3987;51.458;7.238;2022-09-28T16:56:58;1.60;;;1.60;;
7883;SDS011;3987;51.458;7.238;2022-09-28T16:59:24;2.47;;;1.70;;
7883;SDS011;3987;51.458;7.238;2022-09-28T17:01:49;1.90;;;1.90;;
7883;SDS011;3987;51.458;7.238;2022-09-28T17:04:14;1.90;;;1.90;;
7883;SDS011;3987;51.458;7.238;2022-09-28T17:06:40;1.70;;;1.70;;
7883;SDS011;3987;51.458;7.238;2022-09-28T17:09:07;2.70;;;2.60;;
7883;SDS011;3987;51.458;7.238;2022-09-28T17:11:36;2.10;;;2.10;;
7883;SDS011;3987;51.458;7.238;2022-09-28T17:14:01;2.33;;;2.23;;
7883;SDS011;3987;51.458;7.238;2022-09-28T17:16:29;2.57;;;2.30;;
7883;SDS011;3987;51.458;7.238;2022-09-28T17:18:56;2.00;;;2.00;;
7883;SDS011;3987;51.458;7.238;2022-09-28T17:21:22;2.30;;;2.20;;
7883;SDS011;3987;51.458;7.238;2022-09-28T17:23:48;6.80;;;2.40;;
7883;SDS011;3987;51.458;7.238;2022-09-28T17:26:29;2.67;;;2.57;;
7883;SDS011;3987;51.458;7.238;2022-09-28T17:28:59;2.73;;;2.53;;
7883;SDS011;3987;51.458;7.238;2022-09-28T17:31:25;2.63;;;2.50;;
7883;SDS011;3987;51.458;7.238;2022-09-28T17:33:52;2.50;;;2.40;;
7883;SDS011;3987;51.458;7.238;2022-09-28T17:36:18;2.57;;;2.40;;
7883;SDS011;3987;51.458;7.238;2022-09-28T17:38:44;3.53;;;2.10;;
7883;SDS011;3987;51.458;7.238;2022-09-28T17:41:11;2.40;;;2.30;;
7883;SDS011;3987;51.458;7.238;2022-09-28T17:43:37;3.93;;;2.50;;
7883;SDS011;3987;51.458;7.238;2022-09-28T17:46:06;2.60;;;2.30;;
7883;SDS011;3987;51.458;7.238;2022-09-28T17:48:37;2.40;;;2.30;;
7883;SDS011;3987;51.458;7.238;2022-09-28T17:51:03;2.53;;;2.27;;
7883;SDS011;3987;51.458;7.238;2022-09-28T17:53:29;2.13;;;2.03;;
7883;SDS011;3987;51.458;7.238;2022-09-28T17:55:55;2.17;;;2.07;;
7883;SDS011;3987;51.458;7.238;2022-09-28T17:58:20;2.30;;;2.30;;
7883;SDS011;3987;51.458;7.238;2022-09-28T18:00:47;2.10;;;2.00;;
7883;SDS011;3987;51.458;7.238;2022-09-28T18:03:15;2.73;;;2.63;;
7883;SDS011;3987;51.458;7.238;2022-09-28T18:05:42;3.23;;;3.03;;
7883;SDS011;3987;51.458;7.238;2022-09-28T18:08:10;3.07;;;2.90;;
7883;SDS011;3987;51.458;7.238;2022-09-28T18:10:37;3.37;;;3.17;;
7883;SDS011;3987;51.458;7.238;2022-09-28T18:13:02;3.53;;;3.43;;
7883;SDS011;3987;51.458;7.238;2022-09-28T18:15:28;3.50;;;3.23;;
7883;SDS011;3987;51.458;7.238;2022-09-28T18:17:53;3.53;;;3.43;;
7883;SDS011;3987;51.458;7.238;2022-09-28T18:20:19;3.73;;;3.57;;
7883;SDS011;3987;51.458;7.238;2022-09-28T18:22:44;4.20;;;4.00;;
7883;SDS011;3987;51.458;7.238;2022-09-28T18:25:09;3.73;;;3.53;;
7883;SDS011;3987;51.458;7.238;2022-09-28T18:27:35;3.90;;;3.63;;
7883;SDS011;3987;51.458;7.238;2022-09-28T18:30:00;3.80;;;3.70;;
7883;SDS011;3987;51.458;7.238;2022-09-28T18:32:27;3.50;;;3.40;;
7883;SDS011;3987;51.458;7.238;2022-09-28T18:34:52;3.90;;;3.53;;
7883;SDS011;3987;51.458;7.238;2022-09-28T18:37:18;3.67;;;3.47;;